Terminal Aerodrome Forecast
Issued by NWS

Home | Current Version | Previous Version | Text Only | Print | Product List | Glossary On
Versions: 1 2 3 4 5 6 7 8 9 10 11 12 13 14 15 16 17 18 19 20 21
000
FTUS44 KLZK 051500 AAA
TAFPBF
TAF AMD
KPBF 051507Z 0515/0612 21007KT P6SM VCTS OVC005CB
     FM051700 21005KT P6SM VCSH SCT015 BKN050
     FM051900 21009KT P6SM VCTS SCT035CB BKN100=

USA.gov is the U.S. government's official web portal to all federal, state and local government web resources and services.